Time;durP1;ratioP1;P1;durP2;ratioP2;P2;SDS_P1;SDS_P2;PMS_P1;PMS_P2;Temp;Humidity;BMP_temperature;BMP_pressure;BME280_temperature;BME280_humidity;BME280_pressure;Samples;Min_cycle;Max_cycle;Signal;HPM_P1;HPM_P2
2022/08/10 00:02:35;;;;;;;12.30;5.22;;;;;;;22.92;66.58;94639.56;5054077;28;20288;-62
2022/08/10 00:05:02;;;;;;;6.32;4.97;;;;;;;22.76;66.83;94629.66;5054144;28;20276;-62
2022/08/10 00:07:27;;;;;;;5.85;5.25;;;;;;;22.47;67.52;94607.56;5035962;28;20220;-60
2022/08/10 00:09:53;;;;;;;5.15;4.60;;;;;;;22.70;66.79;94628.69;5054046;28;20190;-62
2022/08/10 00:12:19;;;;;;;5.85;5.30;;;;;;;22.69;67.20;94621.09;5036065;28;20291;-62
2022/08/10 00:14:44;;;;;;;7.50;5.13;;;;;;;22.56;67.47;94617.50;5053894;28;20218;-62
2022/08/10 00:17:10;;;;;;;7.03;4.93;;;;;;;22.51;68.36;94594.03;5053641;28;20217;-63
2022/08/10 00:19:35;;;;;;;5.50;4.90;;;;;;;22.49;68.11;94610.75;5053779;28;20276;-65
2022/08/10 00:22:01;;;;;;;6.45;5.18;;;;;;;22.54;67.94;94616.16;5053659;28;20682;-63
2022/08/10 00:24:26;;;;;;;7.60;5.10;;;;;;;22.58;67.87;94609.59;5053784;28;20243;-64
2022/08/10 00:26:52;;;;;;;6.78;5.20;;;;;;;22.72;67.84;94618.09;5053641;28;20251;-63
2022/08/10 00:29:17;;;;;;;6.55;4.78;;;;;;;22.55;68.70;94608.16;5053747;28;20213;-63
2022/08/10 00:31:43;;;;;;;8.52;5.75;;;;;;;22.59;68.86;94600.00;5035609;28;20690;-62
2022/08/10 00:34:08;;;;;;;6.90;5.60;;;;;;;22.50;68.85;94607.19;5035654;28;20188;-63
2022/08/10 00:36:33;;;;;;;8.82;5.40;;;;;;;22.58;69.15;94609.59;5053729;28;20210;-63
2022/08/10 00:38:59;;;;;;;6.05;5.43;;;;;;;22.68;68.45;94609.94;5035671;28;20189;-62
2022/08/10 00:41:24;;;;;;;7.82;5.25;;;;;;;22.60;68.66;94615.38;5053273;28;20206;-62
2022/08/10 00:43:50;;;;;;;5.18;4.70;;;;;;;22.37;69.53;94591.66;5053340;28;20247;-63
2022/08/10 00:46:15;;;;;;;7.00;5.60;;;;;;;22.32;69.93;94599.25;5053252;28;20259;-63
2022/08/10 00:48:41;;;;;;;6.32;5.72;;;;;;;22.36;69.90;94597.84;5053393;28;20193;-62
2022/08/10 00:51:06;;;;;;;6.72;6.03;;;;;;;22.24;71.00;94586.53;5035241;28;20690;-63
2022/08/10 00:53:32;;;;;;;7.60;5.28;;;;;;;22.18;70.88;94589.91;5052843;28;20217;-63
2022/08/10 00:55:58;;;;;;;6.35;5.25;;;;;;;22.12;71.45;94575.97;5053381;28;20225;-62
2022/08/10 00:58:24;;;;;;;6.78;5.68;;;;;;;22.17;70.70;94596.09;5053137;28;20193;-62
2022/08/10 01:00:49;;;;;;;9.20;5.38;;;;;;;22.18;70.99;94592.50;5053328;28;20271;-62
2022/08/10 01:03:15;;;;;;;8.85;5.07;;;;;;;22.23;70.68;94597.88;5035137;28;20194;-66
2022/08/10 01:06:04;;;;;;;8.55;5.53;;;;;;;22.15;70.64;94605.84;5053208;28;20629;-64
2022/08/10 01:08:29;;;;;;;9.70;5.60;;;;;;;22.06;70.90;94592.31;5053158;28;20251;-60
2022/08/10 01:11:07;;;;;;;7.82;5.20;;;;;;;22.17;71.01;94596.88;5053001;28;20210;-60
2022/08/10 01:14:00;;;;;;;5.35;4.85;;;;;;;21.86;71.91;94577.78;5052881;28;20221;-62
2022/08/10 01:16:34;;;;;;;8.40;4.88;;;;;;;21.85;72.42;94571.03;5053220;28;20297;-63
2022/08/10 01:19:47;;;;;;;6.43;5.10;;;;;;;21.79;71.47;94589.91;5053061;28;20215;-62
2022/08/10 01:22:50;;;;;;;8.90;5.40;;;;;;;21.77;70.96;94600.47;5052799;28;20217;-64
2022/08/10 01:25:42;;;;;;;8.98;5.30;;;;;;;21.75;70.76;94603.25;5052971;28;20216;-63
2022/08/10 01:28:13;;;;;;;5.57;4.55;;;;;;;21.77;70.80;94613.41;5052772;28;20190;-61
2022/08/10 01:30:41;;;;;;;5.25;4.75;;;;;;;21.64;71.84;94590.09;5052814;28;20266;-62
2022/08/10 01:33:17;;;;;;;7.60;5.40;;;;;;;21.58;71.70;94591.72;5052635;28;20193;-59
2022/08/10 01:35:52;;;;;;;11.73;9.77;;;;;;;21.49;72.28;94582.53;5052380;28;20220;-62
2022/08/10 01:38:47;;;;;;;7.97;5.88;;;;;;;21.50;72.16;94580.75;5034656;28;20196;-62
2022/08/10 01:41:25;;;;;;;8.35;6.40;;;;;;;21.44;72.57;94574.59;5047968;28;20269;-60
2022/08/10 01:44:00;;;;;;;7.70;5.35;;;;;;;21.66;71.20;94601.88;5052915;28;20181;-62
2022/08/10 01:46:28;;;;;;;7.22;5.28;;;;;;;21.47;72.11;94584.50;5052701;28;20209;-62
2022/08/10 01:48:56;;;;;;;7.63;5.15;;;;;;;21.41;72.43;94580.13;5052531;28;20189;-62
2022/08/10 01:51:34;;;;;;;5.90;5.28;;;;;;;21.23;72.89;94561.81;5052875;28;20499;-62
2022/08/10 01:54:08;;;;;;;5.78;5.07;;;;;;;21.24;73.07;94568.59;5052279;28;20277;-63
2022/08/10 01:56:37;;;;;;;7.05;5.28;;;;;;;21.16;73.17;94573.16;5034192;28;20210;-59
2022/08/10 01:59:08;;;;;;;5.93;5.20;;;;;;;21.10;74.26;94556.63;5034174;28;20600;-59
2022/08/10 02:01:44;;;;;;;5.28;4.70;;;;;;;21.10;74.92;94537.72;5052664;28;20319;-59
2022/08/10 02:04:12;;;;;;;11.63;9.63;;;;;;;21.06;75.75;94549.47;5052243;28;20184;-60
2022/08/10 02:06:42;;;;;;;9.60;6.68;;;;;;;21.06;75.57;94545.09;5051040;28;20209;-62
2022/08/10 02:09:11;;;;;;;10.45;8.13;;;;;;;21.13;75.91;94545.09;5052269;28;20250;-59
2022/08/10 02:11:37;;;;;;;8.23;7.32;;;;;;;21.06;75.76;94549.47;5052225;28;20220;-62
2022/08/10 02:14:04;;;;;;;8.20;6.07;;;;;;;21.07;75.91;94538.91;5052033;28;20189;-62
2022/08/10 02:16:31;;;;;;;7.90;5.00;;;;;;;21.05;76.44;94548.66;5033995;28;20232;-63
2022/08/10 02:18:59;;;;;;;7.95;5.60;;;;;;;21.12;76.27;94546.09;5051981;28;20280;-59
2022/08/10 02:21:28;;;;;;;7.20;5.03;;;;;;;21.19;75.71;94558.03;5051840;28;20217;-63
2022/08/10 02:23:56;;;;;;;17.98;13.35;;;;;;;21.16;76.36;94545.50;5033920;28;20196;-62
2022/08/10 02:26:23;;;;;;;13.13;9.38;;;;;;;21.12;76.28;94552.06;5052101;28;20213;-59
2022/08/10 02:28:51;;;;;;;6.18;5.50;;;;;;;21.23;75.89;94561.03;5051731;28;20272;-62
2022/08/10 02:31:20;;;;;;;9.88;7.00;;;;;;;21.27;76.04;94565.59;5052086;28;20217;-63
2022/08/10 02:33:49;;;;;;;9.88;5.25;;;;;;;21.30;75.90;94560.03;5033766;28;20323;-63
2022/08/10 02:36:15;;;;;;;6.30;5.57;;;;;;;21.39;76.26;94566.59;5033692;28;20221;-63
2022/08/10 02:38:46;;;;;;;6.68;5.45;;;;;;;21.32;76.71;94560.63;5051710;28;20185;-63
2022/08/10 02:41:27;;;;;;;5.88;5.25;;;;;;;21.32;76.86;94558.06;5051702;28;20209;-63
2022/08/10 02:44:03;;;;;;;8.35;5.57;;;;;;;21.06;78.27;94550.25;5051640;28;20284;-62
2022/08/10 02:46:38;;;;;;;8.52;5.32;;;;;;;20.98;79.47;94536.69;5051379;28;20284;-62
2022/08/10 02:49:05;;;;;;;6.82;5.15;;;;;;;20.91;80.14;94529.72;5033555;28;20212;-63
2022/08/10 02:51:35;;;;;;;9.48;5.45;;;;;;;20.88;80.72;94524.16;5051192;28;20275;-64
2022/08/10 02:54:06;;;;;;;7.63;6.00;;;;;;;20.79;81.41;94525.31;5051528;28;20188;-64
2022/08/10 02:56:38;;;;;;;7.53;5.93;;;;;;;20.74;82.14;94519.94;5033471;28;20232;-62
2022/08/10 02:59:14;;;;;;;9.65;5.75;;;;;;;20.61;83.73;94528.44;5033564;28;20193;-63
2022/08/10 03:01:43;;;;;;;7.45;5.65;;;;;;;20.60;83.89;94532.03;5051466;28;20213;-63
2022/08/10 03:04:19;;;;;;;8.45;6.00;;;;;;;20.55;84.10;94536.16;5033489;28;20192;-60
2022/08/10 03:06:57;;;;;;;6.82;5.35;;;;;;;20.55;84.48;94544.72;5051122;28;20219;-62
2022/08/10 03:09:25;;;;;;;9.52;5.85;;;;;;;20.53;84.78;94544.09;5051052;28;20189;-58
2022/08/10 03:11:53;;;;;;;6.10;5.50;;;;;;;20.69;84.46;94566.22;5033333;28;20240;-63
2022/08/10 03:14:20;;;;;;;6.55;5.43;;;;;;;20.70;84.45;94565.25;5032910;28;20188;-65
2022/08/10 03:16:46;;;;;;;9.75;6.72;;;;;;;20.76;84.20;94585.13;5050627;28;20217;-63
2022/08/10 03:19:14;;;;;;;7.80;6.20;;;;;;;20.80;84.37;94581.19;5033092;28;20184;-62
2022/08/10 03:21:41;;;;;;;6.85;5.68;;;;;;;20.74;84.75;94572.41;5051009;28;20209;-62
2022/08/10 03:24:09;;;;;;;9.70;5.47;;;;;;;20.71;84.90;94575.38;5051567;28;20201;-62
2022/08/10 03:26:35;;;;;;;7.68;5.97;;;;;;;20.64;85.42;94574.56;5050927;28;20301;-63
2022/08/10 03:29:04;;;;;;;8.85;5.47;;;;;;;20.63;85.72;94587.66;5050900;28;20196;-62
2022/08/10 03:31:32;;;;;;;7.35;6.10;;;;;;;20.56;86.63;94582.44;5050748;28;20323;-65
2022/08/10 03:34:00;;;;;;;7.22;5.75;;;;;;;20.65;86.27;94583.91;5032867;28;20262;-63
2022/08/10 03:36:26;;;;;;;11.45;6.20;;;;;;;20.66;86.07;94595.03;5051025;28;20332;-60
2022/08/10 03:38:52;;;;;;;8.88;6.28;;;;;;;20.60;87.04;94588.06;5050730;28;20212;-60
2022/08/10 03:41:42;;;;;;;12.18;6.78;;;;;;;20.69;86.84;94604.97;5032924;28;20217;-63
2022/08/10 03:44:11;;;;;;;9.60;6.47;;;;;;;20.63;87.50;94600.56;5050753;28;20261;-62
2022/08/10 03:46:40;;;;;;;7.93;6.28;;;;;;;20.68;87.48;94604.19;5050642;28;20312;-63
2022/08/10 03:49:07;;;;;;;6.35;5.75;;;;;;;20.71;87.55;94610.75;5056786;22;20283;-64
2022/08/10 03:51:33;;;;;;;9.23;6.38;;;;;;;20.68;87.88;94614.53;5050414;28;20213;-63
2022/08/10 03:54:00;;;;;;;7.50;6.15;;;;;;;20.67;88.28;94610.34;5050861;28;20582;-63
2022/08/10 03:56:27;;;;;;;7.72;6.38;;;;;;;20.61;88.78;94612.88;5050699;28;20244;-60
2022/08/10 03:58:52;;;;;;;8.73;6.43;;;;;;;20.56;89.28;94610.09;5050487;28;20182;-60
2022/08/10 04:01:19;;;;;;;7.03;6.32;;;;;;;20.53;89.63;94610.47;5050403;28;20228;-62
2022/08/10 04:03:45;;;;;;;9.07;6.80;;;;;;;20.59;89.31;94625.19;5032716;28;20675;-62
2022/08/10 04:06:11;;;;;;;9.43;5.80;;;;;;;20.70;88.95;94630.63;5050130;28;20259;-63
2022/08/10 04:08:46;;;;;;;7.35;5.72;;;;;;;20.80;88.50;94638.84;5050459;28;20552;-62
2022/08/10 04:11:11;;;;;;;9.75;5.78;;;;;;;21.04;87.86;94647.09;5050291;28;20690;-62
2022/08/10 04:13:37;;;;;;;7.20;6.03;;;;;;;21.18;87.30;94649.53;5050324;28;20196;-62
2022/08/10 04:16:04;;;;;;;8.32;6.75;;;;;;;21.38;86.24;94665.09;5050244;28;20292;-60
2022/08/10 04:18:31;;;;;;;15.80;9.48;;;;;;;21.40;88.39;94632.88;5032351;28;20188;-59
2022/08/10 04:21:02;;;;;;;14.80;10.05;;;;;;;21.51;85.23;94681.44;5049838;28;20209;-59
2022/08/10 04:23:32;;;;;;;16.75;10.07;;;;;;;21.74;86.33;94671.53;5050216;28;20190;-62
2022/08/10 04:25:57;;;;;;;10.10;6.72;;;;;;;21.91;85.02;94694.50;5032222;28;20444;-63
2022/08/10 04:28:25;;;;;;;10.77;6.68;;;;;;;21.97;83.19;94720.41;5050439;28;20619;-62
2022/08/10 04:30:53;;;;;;;18.55;10.88;;;;;;;22.10;85.06;94675.59;5053536;28;20213;-61
2022/08/10 04:33:24;;;;;;;15.63;10.55;;;;;;;22.14;85.36;94669.03;5053436;28;20323;-60
2022/08/10 04:35:51;;;;;;;17.80;8.93;;;;;;;22.11;82.93;94709.06;5059969;22;20229;-62
2022/08/10 04:38:19;;;;;;;8.80;6.78;;;;;;;22.12;81.41;94723.59;5053686;28;20283;-63
2022/08/10 04:40:45;;;;;;;7.47;6.60;;;;;;;22.02;80.23;94740.53;5035619;28;20217;-65
2022/08/10 04:43:12;;;;;;;7.72;6.20;;;;;;;21.70;81.88;94716.94;5035502;28;20249;-64
2022/08/10 04:45:39;;;;;;;9.82;7.35;;;;;;;21.50;83.65;94672.09;5035479;28;20263;-63
2022/08/10 04:48:05;;;;;;;11.38;6.32;;;;;;;21.25;84.13;94671.03;5053499;28;20272;-59
2022/08/10 04:50:30;;;;;;;9.93;6.75;;;;;;;21.12;84.87;94663.25;5053366;28;20292;-63
2022/08/10 04:52:56;;;;;;;8.75;6.78;;;;;;;20.96;86.80;94629.94;5035479;28;20182;-62
2022/08/10 04:55:21;;;;;;;11.82;7.00;;;;;;;20.89;87.36;94631.69;5035322;28;20220;-61
2022/08/10 04:57:47;;;;;;;9.48;7.57;;;;;;;20.86;88.20;94616.59;5035232;28;20641;-62
2022/08/10 05:00:13;;;;;;;8.55;6.90;;;;;;;20.94;88.28;94631.94;5052911;28;20186;-63
2022/08/10 05:02:38;;;;;;;14.00;7.80;;;;;;;20.98;89.13;94625.38;5053118;28;20609;-64
2022/08/10 05:05:04;;;;;;;11.65;7.93;;;;;;;21.00;89.56;94630.34;5053052;28;20193;-58
2022/08/10 05:07:29;;;;;;;9.60;7.85;;;;;;;21.01;89.95;94631.94;5052814;28;20299;-59
2022/08/10 05:09:55;;;;;;;9.82;7.45;;;;;;;20.96;90.44;94631.72;5053078;28;20269;-61
2022/08/10 05:12:21;;;;;;;9.40;8.32;;;;;;;20.88;91.76;94628.34;5053519;28;20292;-62
2022/08/10 05:14:47;;;;;;;9.13;7.78;;;;;;;20.88;92.10;94628.34;5053087;28;20288;-59
2022/08/10 05:17:12;;;;;;;14.07;7.82;;;;;;;20.83;92.70;94629.88;5052910;28;20731;-60
2022/08/10 05:19:37;;;;;;;12.60;7.57;;;;;;;20.92;92.38;94636.50;5053840;28;20216;-61
2022/08/10 05:22:07;;;;;;;15.30;7.70;;;;;;;20.92;92.84;94628.75;5052678;28;20275;-59
2022/08/10 05:24:33;;;;;;;9.90;7.70;;;;;;;20.93;93.14;94628.53;5052821;28;20231;-62
2022/08/10 05:26:58;;;;;;;10.25;7.35;;;;;;;20.98;93.37;94635.72;5052369;28;20702;-63
2022/08/10 05:29:24;;;;;;;9.40;8.02;;;;;;;21.00;93.80;94635.50;5055253;28;20185;-62
2022/08/10 05:31:50;;;;;;;10.50;7.55;;;;;;;21.06;93.41;94638.16;5052720;28;20218;-62
2022/08/10 05:34:16;;;;;;;9.15;8.18;;;;;;;21.09;93.71;94635.16;5051078;28;20181;-61
2022/08/10 05:36:42;;;;;;;9.40;8.38;;;;;;;21.14;93.19;94643.16;5051919;28;20277;-60
2022/08/10 05:39:09;;;;;;;13.75;7.78;;;;;;;21.42;91.78;94656.75;5053077;28;20231;-64
2022/08/10 05:41:35;;;;;;;9.23;8.02;;;;;;;21.48;92.17;94655.97;5033461;28;20300;-63
2022/08/10 05:44:01;;;;;;;12.55;8.98;;;;;;;21.33;93.02;94647.56;5052746;28;20186;-63
2022/08/10 05:46:27;;;;;;;11.18;8.90;;;;;;;21.47;92.72;94645.84;5054318;28;20222;-63
2022/08/10 05:48:53;;;;;;;9.35;8.27;;;;;;;21.60;90.77;94671.72;5052467;28;20236;-62
2022/08/10 05:51:19;;;;;;;12.35;8.70;;;;;;;21.73;90.71;94672.53;5034621;28;20209;-64
2022/08/10 05:53:45;;;;;;;11.63;8.10;;;;;;;21.87;90.01;94678.56;5037539;28;20189;-64
2022/08/10 05:56:11;;;;;;;13.20;8.45;;;;;;;21.74;90.27;94673.34;5034666;28;20711;-61
2022/08/10 05:58:37;;;;;;;10.35;8.82;;;;;;;21.62;91.15;94665.34;5052702;28;20626;-63
2022/08/10 06:01:05;;;;;;;14.02;9.52;;;;;;;21.63;90.43;94673.94;5052455;28;20215;-59
2022/08/10 06:03:36;;;;;;;9.23;8.00;;;;;;;21.90;91.38;94652.25;5052176;28;20189;-60
2022/08/10 06:06:07;;;;;;;12.05;8.02;;;;;;;22.12;88.48;94694.31;5052209;28;20645;-63
2022/08/10 06:08:34;;;;;;;10.73;8.38;;;;;;;22.27;88.95;94679.34;5052518;28;20216;-59
2022/08/10 06:11:03;;;;;;;9.73;8.13;;;;;;;22.43;87.15;94710.03;5052824;28;20554;-63
2022/08/10 06:16:24;;;;;;;9.93;7.82;;;;;;;23.07;84.64;94742.06;5052812;28;20268;-63
2022/08/10 06:18:51;;;;;;;8.82;7.75;;;;;;;23.26;82.89;94758.56;5052080;28;20193;-61
2022/08/10 06:21:22;;;;;;;8.90;8.00;;;;;;;23.51;81.34;94784.66;5052265;28;20205;-63
2022/08/10 06:23:49;;;;;;;9.27;8.15;;;;;;;22.85;82.69;94745.91;5052482;28;20209;-63
2022/08/10 06:26:14;;;;;;;15.95;9.57;;;;;;;22.60;81.96;94752.72;5059189;22;20721;-62
2022/08/10 06:28:45;;;;;;;10.50;8.77;;;;;;;22.79;83.84;94731.16;5051987;28;20194;-60
2022/08/10 06:31:11;;;;;;;11.10;8.93;;;;;;;22.98;82.62;94750.25;5052313;28;20205;-65
2022/08/10 06:33:38;;;;;;;9.52;8.55;;;;;;;23.01;81.49;94763.63;5035743;28;20216;-62
2022/08/10 06:36:06;;;;;;;8.85;7.95;;;;;;;23.07;79.70;94783.56;5051530;28;20252;-62
2022/08/10 06:38:34;;;;;;;7.63;6.90;;;;;;;23.09;77.60;94817.88;5051481;28;20192;-61
2022/08/10 06:41:04;;;;;;;8.52;7.72;;;;;;;23.09;78.31;94793.72;5051656;28;20209;-60
2022/08/10 06:43:32;;;;;;;8.55;7.40;;;;;;;23.33;80.62;94757.56;5051479;28;20189;-61
2022/08/10 06:46:05;;;;;;;8.60;7.68;;;;;;;23.44;77.71;94812.44;5017519;28;20599;-62
2022/08/10 06:48:36;;;;;;;11.98;8.80;;;;;;;23.46;78.04;94800.03;5057812;22;20221;-61
2022/08/10 06:51:05;;;;;;;9.48;8.50;;;;;;;23.59;76.82;94820.78;5051205;28;20221;-59
2022/08/10 06:53:45;;;;;;;10.65;8.32;;;;;;;23.36;76.96;94810.88;5052068;28;20205;-61
2022/08/10 06:56:14;;;;;;;10.20;8.90;;;;;;;23.57;78.20;94786.44;5051638;28;20217;-62
2022/08/10 06:58:52;;;;;;;13.50;9.77;;;;;;;23.56;76.99;94810.78;5051330;28;20547;-63
2022/08/10 07:01:21;;;;;;;13.70;9.10;;;;;;;23.72;75.15;94838.91;5051293;28;20217;-60
2022/08/10 07:04:09;;;;;;;13.50;9.38;;;;;;;23.77;75.26;94837.28;5051249;28;20189;-62
2022/08/10 07:06:36;;;;;;;11.15;9.38;;;;;;;23.80;75.35;94833.47;5033366;28;20260;-60
2022/08/10 07:09:04;;;;;;;10.63;8.63;;;;;;;23.78;75.06;94830.28;5051481;28;20193;-59
2022/08/10 07:11:30;;;;;;;11.77;8.73;;;;;;;23.96;74.24;94840.78;5051002;28;20197;-62
2022/08/10 07:13:59;;;;;;;13.38;9.07;;;;;;;24.16;73.64;94854.50;5033400;28;20190;-62
2022/08/10 07:16:27;;;;;;;11.48;8.55;;;;;;;24.27;71.32;94899.84;5050899;28;20292;-63
2022/08/10 07:18:55;;;;;;;11.43;9.15;;;;;;;24.10;71.38;94876.13;5033412;28;20220;-61
2022/08/10 07:21:23;;;;;;;9.38;8.10;;;;;;;24.21;70.36;94895.47;5050836;28;20217;-62
2022/08/10 07:23:49;;;;;;;13.93;9.55;;;;;;;24.25;70.16;94891.44;5033086;28;20189;-60
2022/08/10 07:26:18;;;;;;;9.82;8.93;;;;;;;24.43;70.30;94884.56;5033035;28;20245;-60
2022/08/10 07:28:45;;;;;;;10.85;9.75;;;;;;;24.47;69.63;94895.31;5051067;28;20242;-62
2022/08/10 07:31:13;;;;;;;11.18;8.43;;;;;;;24.69;68.73;94918.19;5050845;28;20268;-62
2022/08/10 07:33:41;;;;;;;11.32;8.60;;;;;;;24.61;67.96;94921.06;5050998;28;20189;-62
2022/08/10 07:36:08;;;;;;;10.07;8.40;;;;;;;24.43;68.22;94909.75;5050828;28;20587;-63
2022/08/10 07:38:35;;;;;;;9.10;8.02;;;;;;;24.68;68.06;94916.63;5051279;28;20184;-62
2022/08/10 07:41:04;;;;;;;10.23;9.20;;;;;;;24.49;68.43;94898.53;5050718;28;20201;-61
2022/08/10 07:43:34;;;;;;;13.60;10.00;;;;;;;24.45;69.30;94879.13;5051047;28;20613;-60
2022/08/10 07:46:03;;;;;;;14.27;8.68;;;;;;;24.61;68.47;94887.25;5050753;28;20317;-63
2022/08/10 07:48:32;;;;;;;11.07;8.23;;;;;;;24.80;66.69;94925.38;5032858;28;20284;-63
2022/08/10 07:51:00;;;;;;;10.05;8.27;;;;;;;25.00;65.88;94943.44;5050659;28;20221;-63
2022/08/10 07:53:30;;;;;;;9.05;8.15;;;;;;;25.11;64.67;94962.78;5050563;28;20209;-63
2022/08/10 07:55:58;;;;;;;8.70;7.72;;;;;;;25.34;63.54;94970.81;5050645;28;20310;-62
2022/08/10 07:58:27;;;;;;;9.93;8.02;;;;;;;25.62;63.05;94966.78;5050637;28;20686;-61
2022/08/10 08:00:54;;;;;;;11.35;8.68;;;;;;;25.91;62.70;94960.09;5050480;28;20214;-63
2022/08/10 08:03:27;;;;;;;11.38;8.55;;;;;;;25.99;61.99;94965.03;5051261;28;20186;-62
2022/08/10 08:05:54;;;;;;;10.02;8.98;;;;;;;25.95;62.74;94940.41;5054001;28;20720;-62
2022/08/10 08:08:21;;;;;;;14.13;9.70;;;;;;;25.97;63.75;94917.53;5036326;28;20182;-62
2022/08/10 08:10:47;;;;;;;10.20;8.98;;;;;;;25.82;63.00;94930.13;5035953;28;20300;-63
2022/08/10 08:13:15;;;;;;;9.43;8.55;;;;;;;25.87;61.76;94964.16;5053829;28;20182;-64
2022/08/10 08:15:42;;;;;;;10.75;8.20;;;;;;;25.87;61.32;94960.75;5060038;22;20226;-62
2022/08/10 08:18:10;;;;;;;8.00;7.25;;;;;;;25.79;59.81;94998.31;5053943;28;20201;-63
2022/08/10 08:20:36;;;;;;;8.90;8.10;;;;;;;25.76;60.89;94947.41;5053830;28;20716;-60
2022/08/10 08:23:03;;;;;;;10.80;8.45;;;;;;;26.08;60.92;94944.72;5053721;28;20805;-63
2022/08/10 08:25:29;;;;;;;12.05;8.07;;;;;;;26.19;60.41;94964.84;5054114;28;20217;-59
2022/08/10 08:27:55;;;;;;;11.30;8.32;;;;;;;26.29;59.93;94957.31;5053861;28;20225;-60
2022/08/10 08:30:23;;;;;;;8.38;7.53;;;;;;;26.29;59.38;94975.56;5054088;28;20193;-62
2022/08/10 08:33:11;;;;;;;9.93;7.50;;;;;;;26.51;59.15;94982.72;5053563;28;20182;-60
2022/08/10 08:35:37;;;;;;;9.52;6.93;;;;;;;26.19;58.56;94989.09;5059364;22;20308;-62
2022/08/10 08:38:05;;;;;;;7.85;7.03;;;;;;;26.44;58.67;94979.38;5053483;28;20747;-63
2022/08/10 08:40:37;;;;;;;8.65;6.53;;;;;;;26.74;58.15;94982.06;5053886;28;20682;-59
2022/08/10 08:43:12;;;;;;;9.02;5.80;;;;;;;26.67;56.17;95027.44;5053425;28;20197;-64
2022/08/10 08:45:46;;;;;;;10.60;7.43;;;;;;;26.80;56.77;95004.66;5053257;28;20264;-63
2022/08/10 08:48:17;;;;;;;7.65;6.30;;;;;;;26.72;56.46;95006.75;5053345;28;20278;-63
2022/08/10 08:50:43;;;;;;;7.65;5.65;;;;;;;26.96;54.65;95050.22;5053239;28;20244;-60
2022/08/10 08:53:35;;;;;;;8.73;6.93;;;;;;;27.05;55.61;95020.19;5053147;28;20189;-62
2022/08/10 08:56:15;;;;;;;8.38;7.18;;;;;;;26.86;56.49;94989.91;5053316;28;20729;-60
2022/08/10 08:58:53;;;;;;;7.63;6.90;;;;;;;26.95;57.62;94960.66;5053284;28;20197;-60
2022/08/10 09:01:40;;;;;;;11.07;7.00;;;;;;;27.13;57.36;94963.19;5053166;28;20301;-63
2022/08/10 09:04:50;;;;;;;8.73;5.80;;;;;;;27.35;51.24;95125.44;5053135;28;20197;-63
2022/08/10 09:07:51;;;;;;;9.00;6.10;;;;;;;27.28;53.09;95054.19;5014812;28;20219;-62
2022/08/10 09:10:58;;;;;;;9.70;6.68;;;;;;;27.47;53.42;95037.47;5035139;28;20197;-64
2022/08/10 09:13:41;;;;;;;9.55;7.22;;;;;;;27.36;53.71;95027.78;4953283;29;20300;-63
2022/08/10 09:16:47;;;;;;;13.38;7.18;;;;;;;27.68;53.40;95029.06;5047633;28;20651;-62
2022/08/10 09:19:30;;;;;;;7.63;6.53;;;;;;;28.12;53.41;95017.28;5052946;28;20692;-59
2022/08/10 09:22:11;;;;;;;7.68;6.90;;;;;;;28.18;52.45;95048.56;5036064;28;20209;-62
2022/08/10 09:24:49;;;;;;;9.43;7.05;;;;;;;28.67;51.42;95077.88;5052668;28;20685;-63
2022/08/10 09:27:29;;;;;;;8.63;7.28;;;;;;;28.55;53.23;95012.47;5052982;28;20212;-64
2022/08/10 09:29:59;;;;;;;10.23;7.28;;;;;;;28.62;51.00;95083.81;5034787;28;20284;-61
2022/08/10 09:32:39;;;;;;;11.05;6.78;;;;;;;28.17;51.02;95054.03;5052480;28;20212;-63
2022/08/10 09:35:43;;;;;;;7.72;6.93;;;;;;;28.31;51.09;95050.16;5052363;28;20232;-59
2022/08/10 09:38:55;;;;;;;9.05;6.75;;;;;;;28.94;50.75;95047.53;5052582;28;20189;-62
2022/08/10 09:41:33;;;;;;;7.00;5.70;;;;;;;29.14;49.78;95081.97;4981254;28;20248;-60
2022/08/10 09:44:25;;;;;;;5.28;4.88;;;;;;;28.99;47.61;95136.66;5052685;28;20319;-63
2022/08/10 09:47:13;;;;;;;5.93;4.28;;;;;;;28.78;48.83;95095.38;5052479;28;20611;-63
2022/08/10 09:49:52;;;;;;;10.45;4.20;;;;;;;29.24;46.64;95159.97;5052286;28;20199;-63
2022/08/10 09:52:39;;;;;;;6.53;4.00;;;;;;;29.94;45.23;95205.88;5052136;28;20691;-64
2022/08/10 09:55:17;;;;;;;4.28;3.83;;;;;;;30.17;45.16;95186.56;5052597;28;20643;-62
2022/08/10 09:57:57;;;;;;;4.55;3.63;;;;;;;29.86;45.53;95145.16;5052344;28;20269;-60
2022/08/10 10:00:30;;;;;;;4.07;3.65;;;;;;;29.64;45.70;95153.66;5052142;28;20362;-64
2022/08/10 10:03:18;;;;;;;5.82;4.03;;;;;;;29.53;46.00;95124.88;5052312;28;20678;-64
2022/08/10 10:06:22;;;;;;;5.80;3.90;;;;;;;29.74;46.05;95116.34;5052120;28;20221;-62
2022/08/10 10:08:53;;;;;;;4.35;3.95;;;;;;;30.24;44.45;95174.13;5007932;28;20674;-63
2022/08/10 10:11:42;;;;;;;4.13;3.72;;;;;;;29.66;45.70;95135.88;5051993;28;20205;-61
2022/08/10 10:17:47;;;;;;;6.65;3.45;;;;;;;30.05;42.87;95197.16;5051316;28;20247;-62
2022/08/10 10:20:41;;;;;;;4.95;3.30;;;;;;;30.55;44.07;95157.81;5033888;28;20190;-61
2022/08/10 10:23:37;;;;;;;5.30;3.67;;;;;;;30.76;43.50;95172.00;5051822;28;20197;-63
2022/08/10 10:26:10;;;;;;;8.35;3.95;;;;;;;31.54;42.64;95184.84;5051341;28;20214;-60
2022/08/10 10:28:53;;;;;;;4.43;3.42;;;;;;;31.43;40.81;95253.09;5051613;28;20654;-61
2022/08/10 10:31:49;;;;;;;3.88;3.40;;;;;;;31.39;40.90;95241.47;5051957;28;20210;-60
2022/08/10 10:34:26;;;;;;;4.88;3.60;;;;;;;31.90;40.14;95253.38;5033933;28;20234;-60
2022/08/10 10:36:53;;;;;;;5.65;3.42;;;;;;;32.47;40.91;95200.25;5051571;28;20231;-60
2022/08/10 10:39:23;;;;;;;4.97;3.45;;;;;;;32.31;38.81;95286.19;5033648;28;20185;-62
2022/08/10 10:41:55;;;;;;;5.38;3.58;;;;;;;31.83;40.77;95194.13;5051300;28;20205;-61
2022/08/10 10:44:32;;;;;;;3.80;3.40;;;;;;;32.10;41.12;95163.31;5051462;28;20210;-62
2022/08/10 10:47:25;;;;;;;6.05;4.20;;;;;;;31.40;42.24;95131.88;5051529;28;20263;-62
2022/08/10 10:49:58;;;;;;;6.65;3.85;;;;;;;31.37;42.04;95130.50;5051476;28;20197;-62
2022/08/10 10:52:39;;;;;;;4.90;3.70;;;;;;;31.12;43.24;95087.38;5051868;28;20626;-63
2022/08/10 10:55:14;;;;;;;4.53;3.90;;;;;;;31.77;42.32;95118.81;5051948;28;20296;-63
2022/08/10 10:58:25;;;;;;;7.78;4.30;;;;;;;31.06;41.74;95136.47;5051534;28;20189;-64
2022/08/10 11:01:14;;;;;;;6.88;3.85;;;;;;;31.65;41.79;95134.78;4974959;28;20228;-60
2022/08/10 11:04:04;;;;;;;4.45;3.90;;;;;;;32.03;41.28;95149.59;5051438;28;20202;-62
2022/08/10 11:07:09;;;;;;;5.55;4.00;;;;;;;31.24;41.97;95109.06;5051137;28;20295;-62
2022/08/10 11:09:44;;;;;;;5.80;3.97;;;;;;;31.27;42.20;95106.72;4951055;29;20201;-62
2022/08/10 11:12:24;;;;;;;6.50;3.80;;;;;;;31.01;42.45;95089.09;5039892;28;20241;-63
2022/08/10 11:14:59;;;;;;;5.55;3.88;;;;;;;30.73;42.64;95083.19;5051025;28;20197;-63
2022/08/10 11:17:30;;;;;;;7.43;4.05;;;;;;;30.50;42.75;95079.00;5051111;28;20201;-62
2022/08/10 11:20:02;;;;;;;7.00;3.70;;;;;;;30.31;43.69;95041.72;5051586;28;20197;-63
2022/08/10 11:22:35;;;;;;;5.38;3.25;;;;;;;29.83;44.38;95013.47;5050883;28;20757;-64
2022/08/10 11:25:27;;;;;;;8.05;3.67;;;;;;;29.59;44.74;95025.09;5033074;28;20296;-61
2022/08/10 11:28:07;;;;;;;5.82;3.55;;;;;;;29.75;44.46;95019.13;5032997;28;20196;-65
2022/08/10 11:30:53;;;;;;;6.07;4.15;;;;;;;29.54;45.66;94980.47;5032981;28;20324;-62
2022/08/10 11:33:42;;;;;;;10.75;4.38;;;;;;;29.34;46.34;94956.56;5050834;28;20256;-62
2022/08/10 11:36:19;;;;;;;5.03;3.70;;;;;;;29.37;46.63;94942.22;5050566;28;20220;-61
2022/08/10 11:39:13;;;;;;;4.95;4.45;;;;;;;29.21;46.43;94946.41;5053194;28;20188;-63
2022/08/10 11:41:52;;;;;;;5.00;4.50;;;;;;;29.51;46.19;94959.97;5054394;28;20228;-63
2022/08/10 11:44:45;;;;;;;6.18;4.10;;;;;;;29.75;47.34;94914.25;5054701;28;20189;-63
2022/08/10 11:47:34;;;;;;;5.65;4.90;;;;;;;29.44;47.52;94908.75;5054451;28;20278;-63
2022/08/10 11:50:15;;;;;;;5.07;4.25;;;;;;;29.64;47.77;94894.13;5054598;28;20566;-63
2022/08/10 11:53:04;;;;;;;9.38;4.78;;;;;;;29.24;48.47;94884.88;5054213;28;20181;-63
2022/08/10 11:55:31;;;;;;;7.53;4.43;;;;;;;29.14;47.99;94908.28;4999743;28;20233;-63
2022/08/10 12:00:51;;;;;;;7.95;4.40;;;;;;;29.97;45.41;94976.41;5054105;28;20212;-63
2022/08/10 12:03:17;;;;;;;4.95;3.97;;;;;;;29.81;45.48;94964.91;5053954;28;20190;-64
2022/08/10 12:05:46;;;;;;;10.05;4.53;;;;;;;29.40;46.89;94939.91;5053937;28;20212;-64
2022/08/10 12:08:16;;;;;;;8.73;4.45;;;;;;;28.69;48.33;94880.31;5053913;28;20185;-64